Terminal Aerodrome Forecast
Issued by NWS

Home | Current Version | Previous Version | Text Only | Print | Product List | Glossary On
Versions: 1 2 3 4 5 6 7 8 9 10 11 12 13 14 15 16 17 18 19 20 21
000
FTUS41 KPBZ 211300 AAA
TAFFKL
TAF AMD
KFKL 211329Z 2113/2212 21010G15KT P6SM SCT015 BKN025
     FM211600 21010G20KT P6SM SCT025 BKN040
     FM212000 29010G15KT P6SM SCT035 BKN050
      TEMPO 2120/2122 27015G25KT -TSRA BKN035CB
     FM220100 30010KT P6SM BKN050
      AMD LTD TO CLD VIS AND WIND=

USA.gov is the U.S. government's official web portal to all federal, state and local government web resources and services.